Time;durP1;ratioP1;P1;durP2;ratioP2;P2;SDS_P1;SDS_P2;PMS_P1;PMS_P2;Temp;Humidity;BMP_temperature;BMP_pressure;BME280_temperature;BME280_humidity;BME280_pressure;Samples;Min_cycle;Max_cycle;Signal;HPM_P1;HPM_P2
2023/07/26 00:01:02;;;;;;;5.32;2.00;;;13.30;99.90;;;;;;5090969;28;20036;-62
2023/07/26 00:03:27;;;;;;;7.18;2.47;;;13.30;99.90;;;;;;5089864;28;20052;-62
2023/07/26 00:05:53;;;;;;;6.45;2.40;;;13.30;99.90;;;;;;5092290;28;20034;-62
2023/07/26 00:08:19;;;;;;;5.22;2.08;;;13.40;99.90;;;;;;5092518;28;20503;-62
2023/07/26 00:10:48;;;;;;;4.97;2.25;;;13.30;99.90;;;;;;5072687;28;20111;-62
2023/07/26 00:13:17;;;;;;;4.68;2.35;;;13.30;99.90;;;;;;5091268;28;20039;-62
2023/07/26 00:15:43;;;;;;;5.85;1.92;;;13.30;99.90;;;;;;5091763;28;20477;-62
2023/07/26 00:18:09;;;;;;;5.07;1.90;;;13.30;99.90;;;;;;5090280;28;20048;-62
2023/07/26 00:20:35;;;;;;;4.50;1.90;;;13.30;99.90;;;;;;5091008;28;20044;-62
2023/07/26 00:23:00;;;;;;;5.00;2.08;;;13.30;99.90;;;;;;5090465;28;20080;-62
2023/07/26 00:25:26;;;;;;;5.47;2.47;;;13.30;99.90;;;;;;5090344;28;20038;-62
2023/07/26 00:27:52;;;;;;;4.18;1.90;;;13.30;99.90;;;;;;5091593;28;20032;-62
2023/07/26 00:30:17;;;;;;;9.18;2.65;;;13.30;99.90;;;;;;5091172;28;20039;-62
2023/07/26 00:32:43;;;;;;;5.97;2.45;;;13.30;99.90;;;;;;5089799;28;20054;-62
2023/07/26 00:35:21;;;;;;;5.72;2.05;;;13.30;99.90;;;;;;5092187;28;20061;-62
2023/07/26 00:37:47;;;;;;;10.77;2.17;;;13.20;99.90;;;;;;5091714;28;20047;-62
2023/07/26 00:40:13;;;;;;;4.35;2.30;;;13.20;99.90;;;;;;5089732;28;20044;-62
2023/07/26 00:42:38;;;;;;;5.20;2.63;;;13.30;99.90;;;;;;5090448;28;20108;-62
2023/07/26 00:45:05;;;;;;;7.22;2.30;;;13.30;99.90;;;;;;5091035;28;20384;-62
2023/07/26 00:47:30;;;;;;;5.45;2.22;;;13.30;99.90;;;;;;5090317;28;20438;-62
2023/07/26 00:49:56;;;;;;;5.20;1.75;;;13.30;99.90;;;;;;5109703;28;20044;-63
2023/07/26 00:52:23;;;;;;;5.28;2.00;;;13.30;99.90;;;;;;5094032;28;20051;-62
2023/07/26 00:54:49;;;;;;;7.70;1.95;;;13.30;99.90;;;;;;5093965;28;20083;-62
2023/07/26 00:57:15;;;;;;;7.05;2.10;;;13.20;99.90;;;;;;5094453;28;20067;-62
2023/07/26 00:59:40;;;;;;;7.22;2.88;;;13.20;99.90;;;;;;5093429;28;20074;-62
2023/07/26 01:02:06;;;;;;;5.20;2.20;;;13.30;99.90;;;;;;5094363;28;20556;-62
2023/07/26 01:04:32;;;;;;;6.68;2.05;;;13.20;99.90;;;;;;5111132;28;20400;-62
2023/07/26 01:07:20;;;;;;;5.30;1.92;;;13.20;99.90;;;;;;5094484;28;20032;-62
2023/07/26 01:10:05;;;;;;;5.90;2.45;;;13.30;99.90;;;;;;5094599;28;20051;-62
2023/07/26 01:12:39;;;;;;;4.75;1.90;;;13.20;99.90;;;;;;5094107;28;20078;-62
2023/07/26 01:15:10;;;;;;;4.57;1.93;;;13.20;99.90;;;;;;5093539;28;20052;-62
2023/07/26 01:17:35;;;;;;;3.92;1.70;;;13.20;99.90;;;;;;5093723;28;20278;-62
2023/07/26 01:20:01;;;;;;;4.75;2.13;;;13.20;99.90;;;;;;5077194;28;20040;-62
2023/07/26 01:22:27;;;;;;;5.25;2.00;;;13.20;99.90;;;;;;5092909;28;20048;-62
2023/07/26 01:24:52;;;;;;;5.10;2.00;;;13.20;99.90;;;;;;5095083;28;20032;-62
2023/07/26 01:27:18;;;;;;;5.35;2.70;;;13.20;99.90;;;;;;5093258;28;20430;-62
2023/07/26 01:29:44;;;;;;;5.47;2.17;;;13.20;99.90;;;;;;5094690;28;20036;-62
2023/07/26 01:32:12;;;;;;;5.50;1.95;;;13.20;99.90;;;;;;5095326;28;20068;-62
2023/07/26 01:34:38;;;;;;;7.00;2.22;;;13.20;99.90;;;;;;5092842;28;20060;-62
2023/07/26 01:37:05;;;;;;;4.78;1.95;;;13.20;99.90;;;;;;5094675;28;20051;-62
2023/07/26 01:39:31;;;;;;;5.03;2.03;;;13.10;99.90;;;;;;5094788;28;20102;-62
2023/07/26 01:41:57;;;;;;;6.93;2.38;;;13.10;99.90;;;;;;5092647;28;20119;-62
2023/07/26 01:44:23;;;;;;;6.13;2.58;;;13.10;99.90;;;;;;5095047;28;20039;-62
2023/07/26 01:46:52;;;;;;;6.60;2.30;;;13.20;99.90;;;;;;5093715;28;20496;-62
2023/07/26 01:49:18;;;;;;;8.57;2.30;;;13.10;99.90;;;;;;5092757;28;20089;-62
2023/07/26 01:51:44;;;;;;;6.38;2.40;;;13.10;99.90;;;;;;5093983;28;20109;-62
2023/07/26 01:54:10;;;;;;;4.93;1.90;;;13.10;99.90;;;;;;5127815;27;20435;-62
2023/07/26 01:56:35;;;;;;;5.03;2.53;;;13.00;99.90;;;;;;5094023;28;20039;-62
2023/07/26 01:59:01;;;;;;;8.57;2.75;;;13.00;99.90;;;;;;5093078;28;20504;-62
2023/07/26 02:01:27;;;;;;;5.95;2.33;;;13.00;99.90;;;;;;5126807;27;20044;-62
2023/07/26 02:03:52;;;;;;;4.95;2.10;;;13.00;99.90;;;;;;5093459;28;20068;-62
2023/07/26 02:06:18;;;;;;;8.15;3.13;;;13.00;99.90;;;;;;5094216;28;20152;-62
2023/07/26 02:08:44;;;;;;;6.45;3.10;;;13.00;99.90;;;;;;5127243;27;20047;-62
2023/07/26 02:11:15;;;;;;;5.18;2.40;;;13.00;99.90;;;;;;5093533;28;20061;-62
2023/07/26 02:13:40;;;;;;;6.05;2.92;;;13.00;99.90;;;;;;5126829;27;20495;-62
2023/07/26 02:16:06;;;;;;;6.63;2.28;;;13.00;99.90;;;;;;5094307;28;20047;-62
2023/07/26 02:18:32;;;;;;;6.15;2.33;;;12.90;99.90;;;;;;5093170;28;20495;-62
2023/07/26 02:20:58;;;;;;;6.85;2.22;;;12.90;99.90;;;;;;5094087;28;20076;-62
2023/07/26 02:23:23;;;;;;;5.95;2.35;;;12.90;99.90;;;;;;5093635;28;20040;-62
2023/07/26 02:25:49;;;;;;;4.97;2.10;;;12.90;99.90;;;;;;5092273;28;20046;-62
2023/07/26 02:28:15;;;;;;;6.43;2.58;;;12.80;99.90;;;;;;5126898;27;20107;-62
2023/07/26 02:30:40;;;;;;;6.45;1.98;;;12.80;99.90;;;;;;5092406;28;20051;-62
2023/07/26 02:33:06;;;;;;;6.68;2.38;;;12.80;99.90;;;;;;5094397;28;20032;-62
2023/07/26 02:35:32;;;;;;;8.25;2.65;;;12.80;99.90;;;;;;5093324;28;20044;-62
2023/07/26 02:37:57;;;;;;;5.65;2.55;;;12.80;99.90;;;;;;5091715;28;20044;-62
2023/07/26 02:40:23;;;;;;;6.22;2.38;;;12.70;99.90;;;;;;5094005;28;20031;-62
2023/07/26 02:42:49;;;;;;;7.32;2.83;;;12.70;99.90;;;;;;5093269;28;20044;-62
2023/07/26 02:45:14;;;;;;;8.38;2.83;;;12.70;99.90;;;;;;5091515;28;20028;-62
2023/07/26 02:47:40;;;;;;;5.57;2.13;;;12.70;99.90;;;;;;5092034;28;20039;-62
2023/07/26 02:50:06;;;;;;;6.35;2.45;;;12.70;99.90;;;;;;5092440;28;20060;-62
2023/07/26 02:52:32;;;;;;;5.97;2.47;;;12.60;99.90;;;;;;5074616;28;20052;-62
2023/07/26 02:54:58;;;;;;;6.00;2.35;;;12.70;99.90;;;;;;5093432;28;20047;-62
2023/07/26 02:57:24;;;;;;;9.88;2.70;;;12.70;99.90;;;;;;5092398;28;20047;-62
2023/07/26 02:59:49;;;;;;;7.43;2.83;;;12.60;99.90;;;;;;5090826;28;20047;-62
2023/07/26 03:02:15;;;;;;;8.90;2.90;;;12.70;99.90;;;;;;5092193;28;20095;-62
2023/07/26 03:04:41;;;;;;;6.53;2.40;;;12.60;99.90;;;;;;5074505;28;20051;-62
2023/07/26 03:07:07;;;;;;;7.53;2.83;;;12.70;99.90;;;;;;5091169;28;20032;-61
2023/07/26 03:09:32;;;;;;;6.55;2.35;;;12.70;99.90;;;;;;5091586;28;20050;-61
2023/07/26 03:11:58;;;;;;;6.88;2.47;;;12.70;99.90;;;;;;5092905;28;20473;-61
2023/07/26 03:14:24;;;;;;;6.20;2.30;;;12.70;99.90;;;;;;5074628;28;20040;-62
2023/07/26 03:16:49;;;;;;;9.85;2.67;;;12.70;99.90;;;;;;5091608;28;20127;-61
2023/07/26 03:19:15;;;;;;;7.28;2.95;;;12.70;99.90;;;;;;5092924;28;20075;-61
2023/07/26 03:21:41;;;;;;;6.63;2.70;;;12.70;99.90;;;;;;5090320;28;20392;-62
2023/07/26 03:24:06;;;;;;;8.68;2.90;;;12.70;99.90;;;;;;5093196;28;20085;-61
2023/07/26 03:26:32;;;;;;;7.53;2.88;;;12.70;99.90;;;;;;5091846;28;20388;-62
2023/07/26 03:28:58;;;;;;;8.77;2.75;;;12.70;99.90;;;;;;5091802;28;20051;-62
2023/07/26 03:31:23;;;;;;;6.18;2.22;;;12.70;99.90;;;;;;5092892;28;20039;-62
2023/07/26 03:33:49;;;;;;;8.07;2.70;;;12.60;99.90;;;;;;5089963;28;20073;-61
2023/07/26 03:36:15;;;;;;;7.30;2.65;;;12.70;99.90;;;;;;5093007;28;20036;-62
2023/07/26 03:38:40;;;;;;;6.90;2.33;;;12.60;99.90;;;;;;5092367;28;20085;-62
2023/07/26 03:41:06;;;;;;;5.78;2.50;;;12.60;99.90;;;;;;5124967;27;20365;-62
2023/07/26 03:43:31;;;;;;;6.43;2.42;;;12.60;99.90;;;;;;5092422;28;20159;-62
2023/07/26 03:45:57;;;;;;;6.45;2.30;;;12.50;99.90;;;;;;5124849;27;20047;-62
2023/07/26 03:48:23;;;;;;;6.72;2.90;;;12.50;99.90;;;;;;5092089;28;20032;-62
2023/07/26 03:50:48;;;;;;;6.07;2.53;;;12.50;99.90;;;;;;5124940;27;20070;-62
2023/07/26 03:53:14;;;;;;;5.35;2.42;;;12.50;99.90;;;;;;5092653;28;20168;-63
2023/07/26 03:55:40;;;;;;;5.60;2.45;;;12.50;99.90;;;;;;5090084;28;20058;-62
2023/07/26 03:58:06;;;;;;;5.93;2.38;;;12.50;99.90;;;;;;5092216;28;20036;-62
2023/07/26 04:00:31;;;;;;;6.47;2.60;;;12.50;99.90;;;;;;5092272;28;20039;-62
2023/07/26 04:02:57;;;;;;;8.48;2.50;;;12.40;99.90;;;;;;5073129;28;20461;-62
2023/07/26 04:05:23;;;;;;;6.88;2.65;;;12.40;99.90;;;;;;5092493;28;20031;-62
2023/07/26 04:07:48;;;;;;;6.40;2.50;;;12.40;99.90;;;;;;5091681;28;20115;-62
2023/07/26 04:10:14;;;;;;;9.10;2.80;;;12.40;99.90;;;;;;5073289;28;20032;-62
2023/07/26 04:12:40;;;;;;;5.35;2.60;;;12.40;99.90;;;;;;5091822;28;20088;-62
2023/07/26 04:15:06;;;;;;;9.77;3.03;;;12.40;99.90;;;;;;5092247;28;20044;-62
2023/07/26 04:17:32;;;;;;;6.25;3.25;;;12.50;99.90;;;;;;5089993;28;20051;-62
2023/07/26 04:19:59;;;;;;;7.03;2.72;;;12.50;99.90;;;;;;5092010;28;20040;-62
2023/07/26 04:22:24;;;;;;;6.90;3.08;;;12.50;99.90;;;;;;5092159;28;20035;-62
2023/07/26 04:24:50;;;;;;;8.65;3.40;;;12.50;99.90;;;;;;5093306;28;20044;-62
2023/07/26 04:27:15;;;;;;;7.78;3.25;;;12.60;99.90;;;;;;5095334;28;20036;-62
2023/07/26 04:29:42;;;;;;;5.93;3.08;;;12.60;99.90;;;;;;5095772;28;20070;-62
2023/07/26 04:32:08;;;;;;;9.70;3.65;;;12.60;99.90;;;;;;5095773;28;20040;-62
2023/07/26 04:34:34;;;;;;;9.70;4.60;;;12.70;99.90;;;;;;5095821;28;20039;-62
2023/07/26 04:36:59;;;;;;;7.85;3.05;;;12.70;99.90;;;;;;5077785;28;20083;-62
2023/07/26 04:39:25;;;;;;;13.48;3.78;;;12.80;99.90;;;;;;5094516;28;20396;-62
2023/07/26 04:41:51;;;;;;;9.52;4.00;;;12.90;99.90;;;;;;5095591;28;20507;-62
2023/07/26 04:44:17;;;;;;;6.90;3.25;;;13.00;99.90;;;;;;5095418;28;20032;-62
2023/07/26 04:46:42;;;;;;;5.97;3.00;;;13.10;99.90;;;;;;5094046;28;20031;-62
2023/07/26 04:49:08;;;;;;;10.48;3.60;;;13.10;99.90;;;;;;5096158;28;20036;-62
2023/07/26 04:51:34;;;;;;;6.75;3.22;;;13.30;99.90;;;;;;5094628;28;20052;-62
2023/07/26 04:53:59;;;;;;;9.73;3.40;;;13.40;99.90;;;;;;5095573;28;20097;-62
2023/07/26 04:56:26;;;;;;;7.68;3.25;;;13.50;99.90;;;;;;5077760;28;20032;-62
2023/07/26 04:58:52;;;;;;;7.18;3.28;;;13.50;99.90;;;;;;5094286;28;20110;-62
2023/07/26 05:01:19;;;;;;;8.30;3.47;;;13.60;99.90;;;;;;5093805;28;20433;-62
2023/07/26 05:03:45;;;;;;;6.85;2.83;;;13.60;99.90;;;;;;5084317;28;20043;-62
2023/07/26 05:06:11;;;;;;;5.82;2.80;;;13.60;99.90;;;;;;5089359;28;20036;-62
2023/07/26 05:08:40;;;;;;;7.55;2.63;;;13.50;99.90;;;;;;5085828;28;20178;-62
2023/07/26 05:11:05;;;;;;;5.80;2.70;;;13.50;99.90;;;;;;5091920;28;20123;-61
2023/07/26 05:13:31;;;;;;;7.43;2.80;;;13.40;99.90;;;;;;5091397;28;20044;-62
2023/07/26 05:15:57;;;;;;;8.32;3.05;;;13.40;99.90;;;;;;5090191;28;20051;-62
2023/07/26 05:18:23;;;;;;;5.78;2.40;;;13.30;99.90;;;;;;5091093;28;20480;-62
2023/07/26 05:20:52;;;;;;;5.53;2.70;;;13.30;99.90;;;;;;5089404;28;20555;-62
2023/07/26 05:23:18;;;;;;;6.95;3.13;;;13.20;99.90;;;;;;5090560;28;20040;-62
2023/07/26 05:25:44;;;;;;;6.13;2.70;;;13.20;99.90;;;;;;5089748;28;20108;-62
2023/07/26 05:28:10;;;;;;;5.97;2.53;;;13.20;99.90;;;;;;5088810;28;20028;-62
2023/07/26 05:30:40;;;;;;;7.72;2.50;;;13.20;99.90;;;;;;5090046;28;20136;-62
2023/07/26 05:33:06;;;;;;;6.32;2.90;;;13.20;99.90;;;;;;5091691;28;20127;-62
2023/07/26 05:35:32;;;;;;;6.43;2.63;;;13.30;99.90;;;;;;5089911;28;20493;-62
2023/07/26 05:37:58;;;;;;;6.60;2.80;;;13.30;99.90;;;;;;5092225;28;20446;-62
2023/07/26 05:40:24;;;;;;;9.95;2.92;;;13.30;99.90;;;;;;5091363;28;20044;-62
2023/07/26 05:42:50;;;;;;;6.68;2.70;;;13.20;99.90;;;;;;5091803;28;20044;-61
2023/07/26 05:45:16;;;;;;;6.75;3.10;;;13.20;99.90;;;;;;5092229;28;20044;-61
2023/07/26 05:47:43;;;;;;;10.25;3.50;;;13.20;99.90;;;;;;5089667;28;20047;-61
2023/07/26 05:50:10;;;;;;;5.75;2.63;;;13.20;99.90;;;;;;5088821;28;20130;-62
2023/07/26 05:52:37;;;;;;;8.18;2.85;;;13.20;99.90;;;;;;5103927;28;20513;-61
2023/07/26 05:55:03;;;;;;;6.63;2.78;;;13.20;99.90;;;;;;5103448;28;20052;-61
2023/07/26 05:57:28;;;;;;;7.32;2.90;;;13.20;99.90;;;;;;5082246;28;20489;-62
2023/07/26 05:59:54;;;;;;;6.05;2.13;;;13.20;99.90;;;;;;5104223;28;20111;-61
2023/07/26 06:02:20;;;;;;;5.13;2.30;;;13.20;99.90;;;;;;5093766;28;20132;-62
2023/07/26 06:04:46;;;;;;;6.07;2.13;;;13.20;99.90;;;;;;5092442;28;20100;-61
2023/07/26 06:07:13;;;;;;;4.70;2.20;;;13.20;99.90;;;;;;5090788;28;20499;-62
2023/07/26 06:09:38;;;;;;;5.97;2.30;;;13.30;99.90;;;;;;5091520;28;20036;-62
2023/07/26 06:12:05;;;;;;;4.80;2.10;;;13.40;99.90;;;;;;5092274;28;20047;-61
2023/07/26 06:14:31;;;;;;;6.32;2.55;;;13.30;99.90;;;;;;5091518;28;20047;-62
2023/07/26 06:16:58;;;;;;;6.03;2.55;;;13.40;99.90;;;;;;5089923;28;20048;-62
2023/07/26 06:19:24;;;;;;;6.68;2.50;;;13.50;99.90;;;;;;5092020;28;20564;-61
2023/07/26 06:21:50;;;;;;;5.43;2.05;;;13.60;99.90;;;;;;5091371;28;20166;-61
2023/07/26 06:24:16;;;;;;;6.10;2.22;;;13.50;99.90;;;;;;5095614;28;20416;-61
2023/07/26 06:26:41;;;;;;;6.85;2.10;;;13.40;99.90;;;;;;5095644;28;20533;-61
2023/07/26 06:29:07;;;;;;;5.88;2.00;;;13.40;99.90;;;;;;5092831;28;20047;-62
2023/07/26 06:31:33;;;;;;;6.53;2.58;;;13.40;99.90;;;;;;5118459;27;20151;-62
2023/07/26 06:33:58;;;;;;;6.65;2.70;;;13.40;99.90;;;;;;5089667;28;20135;-62
2023/07/26 06:36:24;;;;;;;6.03;2.33;;;13.40;99.90;;;;;;5089756;28;20436;-61
2023/07/26 06:38:49;;;;;;;5.43;2.72;;;13.40;99.90;;;;;;5123244;27;20117;-61
2023/07/26 06:41:15;;;;;;;6.93;2.50;;;13.40;99.90;;;;;;5114468;27;20075;-61
2023/07/26 06:43:41;;;;;;;7.10;2.83;;;13.50;99.90;;;;;;5092530;28;20052;-61
2023/07/26 06:46:07;;;;;;;5.47;2.75;;;13.50;99.90;;;;;;5103161;28;20043;-62
2023/07/26 06:48:32;;;;;;;6.28;2.75;;;13.60;99.90;;;;;;5073841;28;20071;-62
2023/07/26 06:51:01;;;;;;;7.68;3.20;;;13.60;99.90;;;;;;5094349;28;20780;-62
2023/07/26 06:53:27;;;;;;;5.43;2.40;;;13.60;99.90;;;;;;5078639;28;20439;-62
2023/07/26 06:55:58;;;;;;;6.03;2.10;;;13.70;99.90;;;;;;5089795;28;20051;-62
2023/07/26 06:58:24;;;;;;;5.32;2.25;;;13.80;99.90;;;;;;5091929;28;20122;-62
2023/07/26 07:00:49;;;;;;;6.95;2.20;;;13.80;99.90;;;;;;5089018;28;20081;-62
2023/07/26 07:03:15;;;;;;;6.63;2.53;;;13.90;99.90;;;;;;5104201;28;20052;-62
2023/07/26 07:05:41;;;;;;;7.78;2.28;;;14.00;99.90;;;;;;5090781;28;20354;-62
2023/07/26 07:08:06;;;;;;;10.20;3.35;;;14.20;99.90;;;;;;5093498;28;20036;-61
2023/07/26 07:10:32;;;;;;;8.15;4.03;;;14.20;99.90;;;;;;5090021;28;20032;-62
2023/07/26 07:12:57;;;;;;;9.65;4.63;;;14.30;99.90;;;;;;5088455;28;20051;-61
2023/07/26 07:15:23;;;;;;;8.02;3.50;;;14.30;99.90;;;;;;5090562;28;20040;-61
2023/07/26 07:17:49;;;;;;;9.70;4.10;;;14.40;99.90;;;;;;5088922;28;20093;-61
2023/07/26 07:20:15;;;;;;;10.07;4.88;;;14.40;99.90;;;;;;5088581;28;20127;-61
2023/07/26 07:22:41;;;;;;;19.40;5.82;;;14.40;99.90;;;;;;5089672;28;20044;-62
2023/07/26 07:25:07;;;;;;;14.88;5.35;;;14.40;99.90;;;;;;5089968;28;20420;-61
2023/07/26 07:27:32;;;;;;;12.25;4.43;;;14.50;99.90;;;;;;5088848;28;20047;-62
2023/07/26 07:29:59;;;;;;;12.13;4.18;;;14.70;99.90;;;;;;5089669;28;20031;-62
2023/07/26 07:32:25;;;;;;;7.72;2.78;;;14.80;99.90;;;;;;5090045;28;20055;-62
2023/07/26 07:34:52;;;;;;;9.60;2.70;;;14.90;99.90;;;;;;5087660;28;20058;-62
2023/07/26 07:37:17;;;;;;;8.07;2.75;;;15.00;99.90;;;;;;5088842;28;20044;-62
2023/07/26 07:39:43;;;;;;;11.18;5.03;;;15.10;99.90;;;;;;5087846;28;20104;-62
2023/07/26 07:42:09;;;;;;;11.50;5.50;;;15.20;99.90;;;;;;5070825;28;20159;-62
2023/07/26 07:44:34;;;;;;;10.15;4.90;;;15.30;99.90;;;;;;5121829;27;20473;-62
2023/07/26 07:47:03;;;;;;;9.68;4.65;;;15.20;99.90;;;;;;5092314;28;20097;-62
2023/07/26 07:49:29;;;;;;;9.23;4.03;;;15.30;99.90;;;;;;5086788;28;20043;-62
2023/07/26 07:51:55;;;;;;;9.35;4.40;;;15.30;99.90;;;;;;5089178;28;20063;-62
2023/07/26 07:54:20;;;;;;;10.18;4.45;;;15.40;99.90;;;;;;5091767;28;20541;-62
2023/07/26 07:56:47;;;;;;;7.85;3.45;;;15.60;99.90;;;;;;5087628;28;20035;-62
2023/07/26 07:59:13;;;;;;;9.38;3.83;;;15.70;99.90;;;;;;5101316;28;20039;-62
2023/07/26 08:01:39;;;;;;;5.55;2.60;;;15.60;99.90;;;;;;5105585;28;20051;-62
2023/07/26 08:04:05;;;;;;;4.45;2.22;;;15.60;99.90;;;;;;5092092;28;20135;-62
2023/07/26 08:06:32;;;;;;;7.18;2.90;;;15.50;99.90;;;;;;5090291;28;20082;-62
2023/07/26 08:08:58;;;;;;;4.93;2.50;;;15.50;99.90;;;;;;5088810;28;20043;-62
2023/07/26 08:11:24;;;;;;;4.82;2.53;;;15.50;99.90;;;;;;5109108;28;20036;-62
2023/07/26 08:13:49;;;;;;;6.68;2.50;;;15.40;99.90;;;;;;5097992;28;20069;-62
2023/07/26 08:16:15;;;;;;;6.25;3.05;;;15.30;99.90;;;;;;5104191;28;20071;-62
2023/07/26 08:18:41;;;;;;;10.80;4.15;;;15.20;99.90;;;;;;5090442;28;20448;-62
2023/07/26 08:21:07;;;;;;;10.52;3.67;;;15.30;99.90;;;;;;5109789;28;20039;-62
2023/07/26 08:23:33;;;;;;;7.82;4.00;;;15.30;99.90;;;;;;5108063;28;20122;-62
2023/07/26 08:26:03;;;;;;;6.90;3.83;;;15.40;99.90;;;;;;5091778;28;20036;-62
2023/07/26 08:28:29;;;;;;;8.43;3.30;;;15.60;99.90;;;;;;5090841;28;20054;-62
2023/07/26 08:30:54;;;;;;;6.05;3.00;;;15.80;99.90;;;;;;5095335;28;20115;-62
2023/07/26 08:33:20;;;;;;;7.00;3.15;;;16.00;99.90;;;;;;5123383;28;20097;-62
2023/07/26 08:35:46;;;;;;;7.53;3.00;;;16.00;99.90;;;;;;5073482;28;20036;-62
2023/07/26 08:38:11;;;;;;;6.70;2.90;;;16.20;99.90;;;;;;5091511;28;20036;-62
2023/07/26 08:40:46;;;;;;;6.57;2.70;;;16.20;99.90;;;;;;5115826;28;20075;-62
2023/07/26 08:43:13;;;;;;;5.03;2.17;;;16.30;99.90;;;;;;5086642;28;20500;-62
2023/07/26 08:45:41;;;;;;;8.02;2.75;;;16.40;99.90;;;;;;5096366;28;20044;-62
2023/07/26 08:48:08;;;;;;;5.43;2.60;;;16.50;99.90;;;;;;5093230;28;20044;-62
2023/07/26 08:50:36;;;;;;;6.00;2.78;;;16.60;99.90;;;;;;5090373;28;20147;-62
2023/07/26 08:53:05;;;;;;;8.35;2.78;;;16.70;99.90;;;;;;5090272;28;20051;-63
2023/07/26 08:55:31;;;;;;;6.15;2.40;;;16.80;99.90;;;;;;5091941;28;20404;-63
2023/07/26 08:58:00;;;;;;;6.20;2.63;;;16.80;99.90;;;;;;5090341;28;20051;-63
2023/07/26 09:04:33;;;;;;;6.18;2.72;;;16.90;99.90;;;;;;5089182;28;20039;-63
2023/07/26 09:07:03;;;;;;;6.25;2.63;;;17.00;99.90;;;;;;5091481;28;20051;-62
2023/07/26 09:09:31;;;;;;;5.88;2.55;;;17.00;99.90;;;;;;5090263;28;20047;-62
2023/07/26 09:11:57;;;;;;;7.55;3.42;;;17.00;99.90;;;;;;5096296;28;20040;-62
2023/07/26 09:14:27;;;;;;;7.05;2.80;;;17.10;99.90;;;;;;5077622;28;20417;-62
2023/07/26 09:16:57;;;;;;;4.93;2.28;;;17.10;99.90;;;;;;5095476;28;20166;-62
2023/07/26 09:19:34;;;;;;;7.85;2.40;;;17.00;99.90;;;;;;5094820;28;20086;-63
2023/07/26 09:22:06;;;;;;;5.45;2.63;;;16.90;99.90;;;;;;5095293;28;20085;-62
2023/07/26 09:24:42;;;;;;;5.32;2.75;;;16.80;99.90;;;;;;5095718;28;20435;-63
2023/07/26 09:27:10;;;;;;;6.40;2.50;;;16.70;99.90;;;;;;5093244;28;20043;-64
2023/07/26 09:29:38;;;;;;;5.38;2.40;;;16.60;99.90;;;;;;5093640;28;20520;-65
2023/07/26 09:32:05;;;;;;;5.85;2.40;;;16.70;99.90;;;;;;5093812;28;20044;-65
2023/07/26 09:34:32;;;;;;;6.15;2.28;;;16.80;99.90;;;;;;5094882;28;20051;-65
2023/07/26 09:36:58;;;;;;;5.50;2.33;;;17.00;99.90;;;;;;5093314;28;20044;-65
2023/07/26 09:39:29;;;;;;;3.88;2.00;;;17.20;99.90;;;;;;5094320;28;20044;-63
2023/07/26 09:42:05;;;;;;;4.20;1.90;;;17.40;99.90;;;;;;5125189;27;20126;-63
2023/07/26 09:44:32;;;;;;;5.03;2.38;;;17.40;99.90;;;;;;5094783;28;20071;-63
2023/07/26 09:46:58;;;;;;;6.07;1.90;;;17.40;99.90;;;;;;5092657;28;20043;-63
2023/07/26 09:49:29;;;;;;;5.28;1.90;;;17.40;99.90;;;;;;5093897;28;20044;-63
2023/07/26 09:52:00;;;;;;;5.47;2.15;;;17.60;99.90;;;;;;5093639;28;20381;-63
2023/07/26 09:54:27;;;;;;;3.72;1.67;;;17.80;99.90;;;;;;5094139;28;20044;-64
2023/07/26 09:56:54;;;;;;;5.25;2.00;;;17.90;99.90;;;;;;5093408;28;20048;-63
2023/07/26 09:59:22;;;;;;;5.00;1.83;;;17.80;99.90;;;;;;5094653;28;20437;-64
2023/07/26 10:01:48;;;;;;;4.35;1.90;;;17.70;99.90;;;;;;5093266;28;20052;-63
2023/07/26 10:04:22;;;;;;;4.28;1.67;;;17.60;99.90;;;;;;5125864;27;20048;-63
2023/07/26 10:06:51;;;;;;;4.75;2.13;;;17.70;99.90;;;;;;5098716;28;20043;-63
2023/07/26 10:09:17;;;;;;;4.53;1.83;;;17.90;99.90;;;;;;5097743;28;20052;-65
2023/07/26 10:11:43;;;;;;;5.93;2.83;;;18.10;99.90;;;;;;5090005;28;20043;-64
2023/07/26 10:14:14;;;;;;;5.55;2.72;;;18.00;99.90;;;;;;5094506;28;20036;-64
2023/07/26 10:16:39;;;;;;;5.25;2.60;;;17.80;99.90;;;;;;5091638;28;20046;-66
2023/07/26 10:19:06;;;;;;;5.68;2.67;;;17.60;99.90;;;;;;5095064;28;20239;-65
2023/07/26 10:21:36;;;;;;;5.93;1.98;;;17.60;99.90;;;;;;5092098;28;20404;-66
2023/07/26 10:24:04;;;;;;;5.50;2.38;;;17.80;99.90;;;;;;5093732;28;20047;-65
2023/07/26 10:26:32;;;;;;;5.38;2.80;;;18.00;99.90;;;;;;5094181;28;20123;-64
2023/07/26 10:28:59;;;;;;;5.75;2.20;;;17.90;99.90;;;;;;5093664;28;20400;-64
2023/07/26 10:31:32;;;;;;;5.43;2.20;;;17.70;99.90;;;;;;5070640;28;20051;-64
2023/07/26 10:33:58;;;;;;;5.72;2.08;;;17.40;99.90;;;;;;5085599;28;20489;-64
2023/07/26 10:36:29;;;;;;;5.80;1.67;;;17.10;99.90;;;;;;5089856;28;20035;-64
2023/07/26 10:38:55;;;;;;;4.00;1.65;;;16.80;99.90;;;;;;5089714;28;20093;-64
2023/07/26 10:41:27;;;;;;;3.70;1.38;;;16.60;99.90;;;;;;5090537;28;20404;-64
2023/07/26 10:44:02;;;;;;;3.38;1.30;;;16.40;99.90;;;;;;5089048;28;20413;-64
2023/07/26 10:46:28;;;;;;;4.55;1.30;;;16.40;99.90;;;;;;5072594;28;20115;-64
2023/07/26 10:48:54;;;;;;;3.50;1.50;;;16.30;99.90;;;;;;5090804;28;20160;-64
2023/07/26 10:51:32;;;;;;;2.78;1.00;;;16.30;99.90;;;;;;5121379;27;20044;-64
2023/07/26 10:53:59;;;;;;;2.65;1.00;;;16.20;99.90;;;;;;5090914;28;20484;-64
2023/07/26 10:56:30;;;;;;;2.28;0.90;;;16.20;99.90;;;;;;5089317;28;20048;-64
2023/07/26 10:59:15;;;;;;;3.88;1.25;;;16.20;99.90;;;;;;5088986;28;20051;-64
2023/07/26 11:01:45;;;;;;;3.17;1.30;;;16.40;99.90;;;;;;5071987;28;20097;-64
2023/07/26 11:04:20;;;;;;;3.13;1.17;;;16.70;99.90;;;;;;5089585;28;20843;-64
2023/07/26 11:06:57;;;;;;;5.63;1.42;;;16.90;99.90;;;;;;5097630;28;20063;-64
2023/07/26 11:09:24;;;;;;;3.42;1.20;;;17.20;99.90;;;;;;5076980;28;20503;-64
2023/07/26 11:12:03;;;;;;;8.27;1.90;;;17.50;99.90;;;;;;5088328;28;20040;-63
2023/07/26 11:14:33;;;;;;;4.13;1.45;;;17.80;99.90;;;;;;5093084;28;20036;-65
2023/07/26 11:17:16;;;;;;;7.25;2.72;;;17.90;99.90;;;;;;5071931;28;20070;-65
2023/07/26 11:19:46;;;;;;;6.18;1.85;;;18.10;99.90;;;;;;5087951;28;20036;-65
2023/07/26 11:22:11;;;;;;;6.28;1.60;;;18.10;99.90;;;;;;5087795;28;20081;-64
2023/07/26 11:24:37;;;;;;;5.32;2.00;;;18.00;99.90;;;;;;5090123;28;20036;-64
2023/07/26 11:27:05;;;;;;;5.75;1.73;;;18.10;99.90;;;;;;5088222;28;20523;-64
2023/07/26 11:29:34;;;;;;;5.82;1.95;;;18.20;99.90;;;;;;5091091;28;20039;-64
2023/07/26 11:32:00;;;;;;;5.82;2.13;;;18.40;99.90;;;;;;5095196;28;20048;-65
2023/07/26 11:34:26;;;;;;;8.52;2.30;;;18.60;99.90;;;;;;5111955;28;20169;-65
2023/07/26 11:36:51;;;;;;;6.30;2.25;;;18.60;99.90;;;;;;5095261;28;20472;-65
2023/07/26 11:39:21;;;;;;;7.05;1.27;;;18.60;99.90;;;;;;5092908;28;20043;-64
2023/07/26 11:41:47;;;;;;;5.45;1.73;;;18.80;99.90;;;;;;5090835;28;20067;-64
2023/07/26 11:44:13;;;;;;;5.38;1.90;;;18.80;99.90;;;;;;5090280;28;20072;-63
2023/07/26 11:46:43;;;;;;;5.20;1.73;;;18.70;99.90;;;;;;5104066;28;20504;-62
2023/07/26 11:49:10;;;;;;;4.13;1.55;;;18.60;99.90;;;;;;5105181;28;20036;-65
2023/07/26 11:51:36;;;;;;;6.90;2.00;;;18.50;99.90;;;;;;5104718;28;20049;-62
2023/07/26 11:54:02;;;;;;;6.50;1.80;;;18.40;99.90;;;;;;5070331;28;20378;-62
2023/07/26 11:56:30;;;;;;;5.97;1.52;;;18.60;99.90;;;;;;5104810;28;20129;-63
2023/07/26 11:58:58;;;;;;;4.20;1.38;;;18.90;99.90;;;;;;5071042;28;20278;-63
2023/07/26 12:01:24;;;;;;;4.80;1.10;;;19.10;99.90;;;;;;5092451;28;20043;-63
2023/07/26 12:03:51;;;;;;;3.63;1.10;;;19.30;99.90;;;;;;5073393;28;20040;-62
2023/07/26 12:06:19;;;;;;;4.40;1.42;;;19.30;99.90;;;;;;5091401;28;20048;-63
2023/07/26 12:08:47;;;;;;;3.05;1.13;;;19.20;99.90;;;;;;5090197;28;20040;-63
2023/07/26 12:11:17;;;;;;;3.45;1.13;;;19.10;99.90;;;;;;5091518;28;20504;-62
2023/07/26 12:13:44;;;;;;;3.55;0.90;;;19.20;99.90;;;;;;5090613;28;20040;-62
2023/07/26 12:16:09;;;;;;;3.38;1.20;;;19.30;99.90;;;;;;5090268;28;20097;-62
2023/07/26 12:18:35;;;;;;;3.72;1.13;;;19.40;99.90;;;;;;5090895;28;20044;-63
2023/07/26 12:21:07;;;;;;;1.77;0.75;;;19.50;99.90;;;;;;5091976;28;20109;-63
2023/07/26 12:23:59;;;;;;;2.70;1.23;;;19.50;99.90;;;;;;5089853;28;20036;-63
2023/07/26 12:26:35;;;;;;;3.72;1.67;;;19.40;99.90;;;;;;5091330;28;20040;-62
2023/07/26 12:29:04;;;;;;;3.95;1.52;;;19.20;99.90;;;;;;5090071;28;20067;-62
2023/07/26 12:31:31;;;;;;;2.40;0.90;;;19.10;99.90;;;;;;5092072;28;20381;-62
2023/07/26 12:34:05;;;;;;;1.67;0.85;;;19.10;99.90;;;;;;5090655;28;20079;-61
2023/07/26 12:36:50;;;;;;;3.03;1.52;;;19.20;99.90;;;;;;5073346;28;20167;-62
2023/07/26 12:39:19;;;;;;;2.75;1.10;;;19.00;99.90;;;;;;5124676;28;20059;-61
2023/07/26 12:41:45;;;;;;;3.45;1.17;;;18.80;99.90;;;;;;5124188;28;20153;-61
2023/07/26 12:44:11;;;;;;;10.48;2.42;;;18.70;99.90;;;;;;5091371;28;20495;-61
2023/07/26 12:46:38;;;;;;;59.95;20.25;;;18.60;99.90;;;;;;5094140;28;20040;-61
2023/07/26 12:49:06;;;;;;;4.10;1.10;;;18.70;99.90;;;;;;5094573;28;20040;-62